Terminal Aerodrome Forecast
Issued by NWS

Home | Current Version | Previous Version | Text Only | Print | Product List | Glossary On
Versions: 1 2 3 4 5 6 7 8 9 10 11 12 13 14 15 16 17
000
FTUS45 KTFX 230157 AAA
TAFGTF
TAF AMD
KGTF 230157Z 2302/2324 26015G23KT P6SM VCSH SCT070
      TEMPO 2302/2304 -SHRA BKN060
     FM230400 26015KT P6SM FEW080
     FM231800 28013G21KT P6SM SKC=

USA.gov is the U.S. government's official web portal to all federal, state and local government web resources and services.